Volzhskiy-47 — UBEV — position and weather

sailwx.info

Track history (hours):
 
Tides and Currents Weather Stations Pressure Air Temp Water Temp Dewpoint Dewpoint Depression Visibility Wind Speed Wind Dir Waves Ship Positions

Volzhskiy-47

Last reported at 2017-Oct-18 03:39 UTC. Time now 2017-Oct-18 06:11 UTC.
Position N 45°12' E 036°31'.

Length 139 m; draft 2.7 m.

Type: Cargo ship. MMSI: 273431620.

Date/timePositionNaut miles runAvg speedWind from/ knotsBaromVisibWave heightAir tempDewpointWater temp
2017-Oct-18 03:39N 45°12' E 036°31'0 0.1
2017-Oct-18 03:26N 45°12' E 036°31'0 0.1
2017-Oct-18 02:53N 45°12' E 036°31'0 0.1
2017-Oct-18 02:29N 45°12' E 036°31'0 0.0
2017-Oct-18 01:00N 45°12' E 036°31'0 0.0
2017-Oct-17 21:29N 45°12' E 036°31'5 0.3
2017-Oct-17 03:14N 45°07' E 036°33'4 3.5
2017-Oct-17 02:08N 45°10' E 036°29'1 3.8
2017-Oct-17 01:52N 45°11' E 036°29'2 4.3
2017-Oct-17 01:30N 45°12' E 036°28'2 4.9
2017-Oct-17 01:00N 45°15' E 036°28'4 6.0
2017-Oct-17 00:22N 45°18' E 036°30'2 6.9
2017-Oct-17 00:00N 45°19' E 036°33'4 7.1
2017-Oct-16 23:30N 45°21' E 036°38'3 6.2
2017-Oct-16 23:00N 45°24' E 036°40'3 6.1
2017-Oct-16 22:30N 45°26' E 036°43'3 5.8
2017-Oct-16 22:00N 45°28' E 036°45'1 0.6
2017-Oct-16 20:17N 45°29' E 036°46'0 0.0
2017-Oct-16 19:59N 45°29' E 036°46'0 0.0
2017-Oct-16 19:23N 45°29' E 036°46'0 0.0
2017-Oct-16 18:24N 45°29' E 036°46'0 0.0
2017-Oct-16 17:50N 45°29' E 036°46'0 0.0
2017-Oct-16 17:26N 45°29' E 036°46'0 0.0
2017-Oct-16 16:56N 45°29' E 036°46'0 0.0
2017-Oct-16 16:26N 45°29' E 036°46'0 0.0
2017-Oct-16 15:59N 45°29' E 036°46'0 0.0
2017-Oct-16 14:35N 45°29' E 036°46'0 0.0
2017-Oct-16 14:00N 45°29' E 036°46'0 0.0
2017-Oct-16 13:28N 45°29' E 036°46'0 0.0
2017-Oct-16 13:00N 45°29' E 036°46'0 0.0
2017-Oct-16 12:20N 45°29' E 036°46'0 0.0
2017-Oct-16 12:00N 45°29' E 036°46'0 0.0
2017-Oct-16 11:30N 45°29' E 036°46'0 0.0
2017-Oct-16 11:00N 45°29' E 036°46'0 0.0
2017-Oct-16 10:30N 45°29' E 036°46'0 0.0
2017-Oct-16 09:58N 45°29' E 036°46'0 0.0
2017-Oct-16 09:30N 45°29' E 036°46'0 0.0
2017-Oct-16 09:00N 45°29' E 036°46'0 0.0
2017-Oct-16 08:30N 45°29' E 036°46'0 0.0
2017-Oct-16 07:59N 45°29' E 036°46'0 0.0
2017-Oct-16 07:27N 45°29' E 036°46'0 0.0
2017-Oct-16 07:00N 45°29' E 036°46'0 0.0
2017-Oct-16 06:30N 45°29' E 036°46'0 0.0
2017-Oct-16 06:00N 45°29' E 036°46'0 0.0
2017-Oct-16 05:30N 45°29' E 036°46'0 0.0
2017-Oct-16 05:01N 45°29' E 036°46'0 0.0
2017-Oct-16 04:30N 45°29' E 036°46'0 0.0
2017-Oct-16 04:00N 45°29' E 036°46'0 0.0
2017-Oct-16 03:30N 45°29' E 036°46'0 0.0
2017-Oct-16 03:00N 45°29' E 036°46'0 0.0
2017-Oct-16 02:30N 45°29' E 036°46'0 0.0
2017-Oct-16 01:59N 45°29' E 036°46'0 0.0
2017-Oct-16 01:29N 45°29' E 036°46'0 0.0
2017-Oct-16 01:00N 45°29' E 036°46'0 0.0
2017-Oct-16 00:30N 45°29' E 036°46'0 0.0
2017-Oct-16 00:00N 45°29' E 036°46'0 0.0
2017-Oct-15 23:30N 45°29' E 036°46'0 0.0
2017-Oct-15 23:00N 45°29' E 036°46'0 0.0
2017-Oct-15 22:30N 45°29' E 036°46'0 0.1
2017-Oct-15 22:00N 45°29' E 036°46'0 0.0
2017-Oct-15 21:29N 45°29' E 036°46'0 0.0
2017-Oct-15 21:00N 45°29' E 036°46'0 0.0
2017-Oct-15 20:30N 45°29' E 036°46'0 0.0
2017-Oct-15 20:00N 45°29' E 036°46'0 0.0
2017-Oct-15 19:30N 45°29' E 036°46'0 0.0
2017-Oct-15 19:00N 45°29' E 036°46'0 0.0
2017-Oct-15 18:30N 45°29' E 036°46'0 0.0
2017-Oct-15 17:59N 45°29' E 036°46'0 0.1
2017-Oct-15 17:30N 45°29' E 036°46'1 2.2
2017-Oct-15 17:00N 45°29' E 036°45'1 1.9
2017-Oct-15 16:20N 45°30' E 036°46'0 0.7
2017-Oct-15 15:54N 45°30' E 036°46'0 0.0
2017-Oct-15 13:02N 45°30' E 036°46'0 0.1
2017-Oct-15 12:59N 45°30' E 036°46'0 0.0
2017-Oct-15 12:26N 45°30' E 036°46'0 0.0
2017-Oct-15 12:00N 45°30' E 036°46'0 0.0
2017-Oct-14 15:20N 45°30' E 036°46'0 0.0
2017-Oct-14 14:23N 45°30' E 036°46'0 0.0
2017-Oct-14 13:56N 45°30' E 036°46'0 0.0
2017-Oct-14 13:29N 45°30' E 036°46'0 0.0
2017-Oct-14 12:59N 45°30' E 036°46'0 0.0
2017-Oct-14 12:20N 45°30' E 036°46'0 0.2
2017-Oct-14 12:00N 45°30' E 036°46'  
2017-Oct-09 02:30N 45°30' E 036°44'3 6.8
2017-Oct-09 02:00N 45°28' E 036°42'4 7.1
2017-Oct-09 01:30N 45°24' E 036°41'4 7.2
2017-Oct-09 01:00N 45°21' E 036°38'4 8.3
2017-Oct-09 00:30N 45°19' E 036°33'4 7.2
2017-Oct-09 00:00N 45°17' E 036°29'3 6.5
2017-Oct-08 23:29N 45°14' E 036°29'3 4.5
2017-Oct-08 22:47N 45°10' E 036°29'1 4.3
2017-Oct-08 22:27N 45°09' E 036°29'  
Track history (hours):
 
Tides and Currents Weather Stations Pressure Air Temp Water Temp Dewpoint Dewpoint Depression Visibility Wind Speed Wind Dir Waves Ship Positions

Volzhskiy-47

Last reported at 2017-Oct-18 03:39 UTC. Time now 2017-Oct-18 06:11 UTC.
Position N 45°12' E 036°31'.

Length 139 m; draft 2.7 m.

Type: Cargo ship. MMSI: 273431620.

Date/timePositionNaut miles runAvg speedWind from/ knotsBaromVisibWave heightAir tempDewpointWater temp
2017-Oct-18 03:39N 45°12' E 036°31'0 0.1
2017-Oct-18 03:26N 45°12' E 036°31'0 0.1
2017-Oct-18 02:53N 45°12' E 036°31'0 0.1
2017-Oct-18 02:29N 45°12' E 036°31'0 0.0
2017-Oct-18 01:00N 45°12' E 036°31'0 0.0
2017-Oct-17 21:29N 45°12' E 036°31'5 0.3
2017-Oct-17 03:14N 45°07' E 036°33'4 3.5
2017-Oct-17 02:08N 45°10' E 036°29'1 3.8
2017-Oct-17 01:52N 45°11' E 036°29'2 4.3
2017-Oct-17 01:30N 45°12' E 036°28'2 4.9
2017-Oct-17 01:00N 45°15' E 036°28'4 6.0
2017-Oct-17 00:22N 45°18' E 036°30'2 6.9
2017-Oct-17 00:00N 45°19' E 036°33'4 7.1
2017-Oct-16 23:30N 45°21' E 036°38'3 6.2
2017-Oct-16 23:00N 45°24' E 036°40'3 6.1
2017-Oct-16 22:30N 45°26' E 036°43'3 5.8
2017-Oct-16 22:00N 45°28' E 036°45'1 0.6
2017-Oct-16 20:17N 45°29' E 036°46'0 0.0
2017-Oct-16 19:59N 45°29' E 036°46'0 0.0
2017-Oct-16 19:23N 45°29' E 036°46'0 0.0
2017-Oct-16 18:24N 45°29' E 036°46'0 0.0
2017-Oct-16 17:50N 45°29' E 036°46'0 0.0
2017-Oct-16 17:26N 45°29' E 036°46'0 0.0
2017-Oct-16 16:56N 45°29' E 036°46'0 0.0
2017-Oct-16 16:26N 45°29' E 036°46'0 0.0
2017-Oct-16 15:59N 45°29' E 036°46'0 0.0
2017-Oct-16 14:35N 45°29' E 036°46'0 0.0
2017-Oct-16 14:00N 45°29' E 036°46'0 0.0
2017-Oct-16 13:28N 45°29' E 036°46'0 0.0
2017-Oct-16 13:00N 45°29' E 036°46'0 0.0
2017-Oct-16 12:20N 45°29' E 036°46'0 0.0
2017-Oct-16 12:00N 45°29' E 036°46'0 0.0
2017-Oct-16 11:30N 45°29' E 036°46'0 0.0
2017-Oct-16 11:00N 45°29' E 036°46'0 0.0
2017-Oct-16 10:30N 45°29' E 036°46'0 0.0
2017-Oct-16 09:58N 45°29' E 036°46'0 0.0
2017-Oct-16 09:30N 45°29' E 036°46'0 0.0
2017-Oct-16 09:00N 45°29' E 036°46'0 0.0
2017-Oct-16 08:30N 45°29' E 036°46'0 0.0
2017-Oct-16 07:59N 45°29' E 036°46'0 0.0
2017-Oct-16 07:27N 45°29' E 036°46'0 0.0
2017-Oct-16 07:00N 45°29' E 036°46'0 0.0
2017-Oct-16 06:30N 45°29' E 036°46'0 0.0
2017-Oct-16 06:00N 45°29' E 036°46'0 0.0
2017-Oct-16 05:30N 45°29' E 036°46'0 0.0
2017-Oct-16 05:01N 45°29' E 036°46'0 0.0
2017-Oct-16 04:30N 45°29' E 036°46'0 0.0
2017-Oct-16 04:00N 45°29' E 036°46'0 0.0
2017-Oct-16 03:30N 45°29' E 036°46'0 0.0
2017-Oct-16 03:00N 45°29' E 036°46'0 0.0
2017-Oct-16 02:30N 45°29' E 036°46'0 0.0
2017-Oct-16 01:59N 45°29' E 036°46'0 0.0
2017-Oct-16 01:29N 45°29' E 036°46'0 0.0
2017-Oct-16 01:00N 45°29' E 036°46'0 0.0
2017-Oct-16 00:30N 45°29' E 036°46'0 0.0
2017-Oct-16 00:00N 45°29' E 036°46'0 0.0
2017-Oct-15 23:30N 45°29' E 036°46'0 0.0
2017-Oct-15 23:00N 45°29' E 036°46'0 0.0
2017-Oct-15 22:30N 45°29' E 036°46'0 0.1
2017-Oct-15 22:00N 45°29' E 036°46'0 0.0
2017-Oct-15 21:29N 45°29' E 036°46'0 0.0
2017-Oct-15 21:00N 45°29' E 036°46'0 0.0
2017-Oct-15 20:30N 45°29' E 036°46'0 0.0
2017-Oct-15 20:00N 45°29' E 036°46'0 0.0
2017-Oct-15 19:30N 45°29' E 036°46'0 0.0
2017-Oct-15 19:00N 45°29' E 036°46'0 0.0
2017-Oct-15 18:30N 45°29' E 036°46'0 0.0
2017-Oct-15 17:59N 45°29' E 036°46'0 0.1
2017-Oct-15 17:30N 45°29' E 036°46'1 2.2
2017-Oct-15 17:00N 45°29' E 036°45'1 1.9
2017-Oct-15 16:20N 45°30' E 036°46'0 0.7
2017-Oct-15 15:54N 45°30' E 036°46'0 0.0
2017-Oct-15 13:02N 45°30' E 036°46'0 0.1
2017-Oct-15 12:59N 45°30' E 036°46'0 0.0
2017-Oct-15 12:26N 45°30' E 036°46'0 0.0
2017-Oct-15 12:00N 45°30' E 036°46'0 0.0
2017-Oct-14 15:20N 45°30' E 036°46'0 0.0
2017-Oct-14 14:23N 45°30' E 036°46'0 0.0
2017-Oct-14 13:56N 45°30' E 036°46'0 0.0
2017-Oct-14 13:29N 45°30' E 036°46'0 0.0
2017-Oct-14 12:59N 45°30' E 036°46'0 0.0
2017-Oct-14 12:20N 45°30' E 036°46'0 0.2
2017-Oct-14 12:00N 45°30' E 036°46'  
2017-Oct-09 02:30N 45°30' E 036°44'3 6.8
2017-Oct-09 02:00N 45°28' E 036°42'4 7.1
2017-Oct-09 01:30N 45°24' E 036°41'4 7.2
2017-Oct-09 01:00N 45°21' E 036°38'4 8.3
2017-Oct-09 00:30N 45°19' E 036°33'4 7.2
2017-Oct-09 00:00N 45°17' E 036°29'3 6.5
2017-Oct-08 23:29N 45°14' E 036°29'3 4.5
2017-Oct-08 22:47N 45°10' E 036°29'1 4.3
2017-Oct-08 22:27N 45°09' E 036°29'  

Dump ship's entire track history